sensor_id;sensor_type;location;lat;lon;timestamp;pressure;altitude;pressure_sealevel;temperature;humidity
50484;BME280;36409;52.168;20.878;2022-11-20T00:01:52;100392.73;;;-5.70;70.78
50484;BME280;36409;52.168;20.878;2022-11-20T00:04:20;100390.74;;;-5.76;70.70
50484;BME280;36409;52.168;20.878;2022-11-20T00:06:49;100395.66;;;-5.79;70.52
50484;BME280;36409;52.168;20.878;2022-11-20T00:09:18;100398.92;;;-5.81;70.85
50484;BME280;36409;52.168;20.878;2022-11-20T00:11:47;100395.42;;;-5.83;70.74
50484;BME280;36409;52.168;20.878;2022-11-20T00:14:16;100398.83;;;-5.83;71.02
50484;BME280;36409;52.168;20.878;2022-11-20T00:16:45;100404.02;;;-5.81;71.30
50484;BME280;36409;52.168;20.878;2022-11-20T00:19:14;100395.59;;;-5.80;70.93
50484;BME280;36409;52.168;20.878;2022-11-20T00:21:44;100403.36;;;-5.77;70.57
50484;BME280;36409;52.168;20.878;2022-11-20T00:24:15;100396.69;;;-5.75;71.16
50484;BME280;36409;52.168;20.878;2022-11-20T00:26:51;100393.35;;;-5.74;70.93
50484;BME280;36409;52.168;20.878;2022-11-20T00:29:20;100385.09;;;-5.70;71.00
50484;BME280;36409;52.168;20.878;2022-11-20T00:31:51;100381.83;;;-5.67;71.09
50484;BME280;36409;52.168;20.878;2022-11-20T00:34:19;100382.00;;;-5.64;71.12
50484;BME280;36409;52.168;20.878;2022-11-20T00:36:48;100382.92;;;-5.62;70.93
50484;BME280;36409;52.168;20.878;2022-11-20T00:39:17;100382.23;;;-5.60;71.20
50484;BME280;36409;52.168;20.878;2022-11-20T00:41:47;100380.71;;;-5.56;71.31
50484;BME280;36409;52.168;20.878;2022-11-20T00:44:15;100380.88;;;-5.53;71.32
50484;BME280;36409;52.168;20.878;2022-11-20T00:46:44;100379.36;;;-5.49;71.24
50484;BME280;36409;52.168;20.878;2022-11-20T00:49:13;100383.72;;;-5.47;71.29
50484;BME280;36409;52.168;20.878;2022-11-20T00:51:42;100367.66;;;-5.46;71.33
50484;BME280;36409;52.168;20.878;2022-11-20T00:54:11;100373.77;;;-5.42;70.96
50484;BME280;36409;52.168;20.878;2022-11-20T00:56:39;100365.28;;;-5.43;71.31
50484;BME280;36409;52.168;20.878;2022-11-20T00:59:10;100367.95;;;-5.39;71.31
50484;BME280;36409;52.168;20.878;2022-11-20T01:01:39;100363.02;;;-5.36;71.51
50484;BME280;36409;52.168;20.878;2022-11-20T01:04:08;100363.13;;;-5.35;71.33
50484;BME280;36409;52.168;20.878;2022-11-20T01:06:37;100357.30;;;-5.32;71.21
50484;BME280;36409;52.168;20.878;2022-11-20T01:09:10;100354.82;;;-5.31;71.35
50484;BME280;36409;52.168;20.878;2022-11-20T01:11:41;100350.62;;;-5.30;70.99
50484;BME280;36409;52.168;20.878;2022-11-20T01:14:12;100348.14;;;-5.29;71.20
50484;BME280;36409;52.168;20.878;2022-11-20T01:16:45;100353.23;;;-5.29;71.36
50484;BME280;36409;52.168;20.878;2022-11-20T01:19:16;100345.59;;;-5.29;71.36
50484;BME280;36409;52.168;20.878;2022-11-20T01:21:48;100348.94;;;-5.30;71.59
50484;BME280;36409;52.168;20.878;2022-11-20T01:24:18;100342.19;;;-5.29;71.08
50484;BME280;36409;52.168;20.878;2022-11-20T01:26:49;100343.91;;;-5.28;71.29
50484;BME280;36409;52.168;20.878;2022-11-20T01:29:19;100332.81;;;-5.30;71.13
50484;BME280;36409;52.168;20.878;2022-11-20T01:31:49;100337.10;;;-5.29;71.06
50484;BME280;36409;52.168;20.878;2022-11-20T01:34:20;100338.82;;;-5.28;71.22
50484;BME280;36409;52.168;20.878;2022-11-20T01:36:50;100343.12;;;-5.27;71.42
50484;BME280;36409;52.168;20.878;2022-11-20T01:39:22;100331.19;;;-5.28;71.35
50484;BME280;36409;52.168;20.878;2022-11-20T01:41:53;100329.47;;;-5.29;70.99
50484;BME280;36409;52.168;20.878;2022-11-20T01:44:55;100330.17;;;-5.32;71.17
50484;BME280;36409;52.168;20.878;2022-11-20T01:47:29;100335.25;;;-5.32;71.10
50484;BME280;36409;52.168;20.878;2022-11-20T01:50:05;100328.52;;;-5.31;71.26
50484;BME280;36409;52.168;20.878;2022-11-20T01:52:39;100337.00;;;-5.31;71.35
50484;BME280;36409;52.168;20.878;2022-11-20T01:55:13;100337.90;;;-5.30;71.19
50484;BME280;36409;52.168;20.878;2022-11-20T01:57:44;100342.26;;;-5.28;71.46
50484;BME280;36409;52.168;20.878;2022-11-20T02:00:17;100342.41;;;-5.24;71.14
50484;BME280;36409;52.168;20.878;2022-11-20T02:02:53;100351.86;;;-5.22;71.61
50484;BME280;36409;52.168;20.878;2022-11-20T02:05:27;100353.68;;;-5.19;71.47
50484;BME280;36409;52.168;20.878;2022-11-20T02:07:58;100357.18;;;-5.17;71.71
50484;BME280;36409;52.168;20.878;2022-11-20T02:10:28;100348.75;;;-5.16;71.42
50484;BME280;36409;52.168;20.878;2022-11-20T02:12:59;100347.06;;;-5.16;71.43
50484;BME280;36409;52.168;20.878;2022-11-20T02:15:49;100341.17;;;-5.15;71.23
50484;BME280;36409;52.168;20.878;2022-11-20T02:18:20;100341.27;;;-5.13;71.58
50484;BME280;36409;52.168;20.878;2022-11-20T02:20:55;100342.98;;;-5.12;71.59
50484;BME280;36409;52.168;20.878;2022-11-20T02:23:33;100339.74;;;-5.09;71.61
50484;BME280;36409;52.168;20.878;2022-11-20T02:26:08;100343.24;;;-5.07;71.30
50484;BME280;36409;52.168;20.878;2022-11-20T02:28:40;100332.23;;;-5.06;71.51
50484;BME280;36409;52.168;20.878;2022-11-20T02:31:09;100342.51;;;-5.05;71.47
50484;BME280;36409;52.168;20.878;2022-11-20T02:33:38;100335.83;;;-5.03;71.55
50484;BME280;36409;52.168;20.878;2022-11-20T02:36:09;100339.23;;;-5.02;71.32
50484;BME280;36409;52.168;20.878;2022-11-20T02:38:39;100342.73;;;-5.00;71.52
50484;BME280;36409;52.168;20.878;2022-11-20T02:41:08;100339.38;;;-4.99;71.28
50484;BME280;36409;52.168;20.878;2022-11-20T02:43:42;100336.04;;;-4.98;71.38
50484;BME280;36409;52.168;20.878;2022-11-20T02:46:13;100338.59;;;-4.98;71.35
50484;BME280;36409;52.168;20.878;2022-11-20T02:48:42;100335.24;;;-4.97;71.51
50484;BME280;36409;52.168;20.878;2022-11-20T02:51:17;100337.79;;;-4.97;71.50
50484;BME280;36409;52.168;20.878;2022-11-20T02:53:47;100334.35;;;-4.98;71.56
50484;BME280;36409;52.168;20.878;2022-11-20T02:56:16;100332.70;;;-4.97;71.59
50484;BME280;36409;52.168;20.878;2022-11-20T02:58:46;100332.70;;;-4.97;71.48
50484;BME280;36409;52.168;20.878;2022-11-20T03:01:15;100331.74;;;-4.99;71.60
50484;BME280;36409;52.168;20.878;2022-11-20T03:03:46;100332.55;;;-5.00;71.40
50484;BME280;36409;52.168;20.878;2022-11-20T03:06:16;100331.59;;;-5.02;71.49
50484;BME280;36409;52.168;20.878;2022-11-20T03:08:47;100322.20;;;-5.03;71.75
50484;BME280;36409;52.168;20.878;2022-11-20T03:11:16;100330.58;;;-5.06;71.47
50484;BME280;36409;52.168;20.878;2022-11-20T03:13:46;100327.97;;;-5.07;71.47
50484;BME280;36409;52.168;20.878;2022-11-20T03:16:17;100327.81;;;-5.10;71.43
50484;BME280;36409;52.168;20.878;2022-11-20T03:18:47;100329.24;;;-5.16;71.54
50484;BME280;36409;52.168;20.878;2022-11-20T03:21:16;100329.91;;;-5.20;71.52
50484;BME280;36409;52.168;20.878;2022-11-20T03:23:46;100321.23;;;-5.23;71.57
50484;BME280;36409;52.168;20.878;2022-11-20T03:26:16;100319.35;;;-5.28;71.66
50484;BME280;36409;52.168;20.878;2022-11-20T03:28:48;100317.38;;;-5.33;71.51
50484;BME280;36409;52.168;20.878;2022-11-20T03:31:19;100322.31;;;-5.36;71.45
50484;BME280;36409;52.168;20.878;2022-11-20T03:33:48;100320.43;;;-5.40;71.37
50484;BME280;36409;52.168;20.878;2022-11-20T03:36:19;100320.27;;;-5.44;71.48
50484;BME280;36409;52.168;20.878;2022-11-20T03:38:49;100318.30;;;-5.49;71.82
50484;BME280;36409;52.168;20.878;2022-11-20T03:41:21;100324.91;;;-5.53;71.45
50484;BME280;36409;52.168;20.878;2022-11-20T03:43:50;100317.91;;;-5.57;71.64
50484;BME280;36409;52.168;20.878;2022-11-20T03:46:20;100314.41;;;-5.59;71.38
50484;BME280;36409;52.168;20.878;2022-11-20T03:48:49;100309.98;;;-5.63;71.62
50484;BME280;36409;52.168;20.878;2022-11-20T03:51:21;100307.28;;;-5.66;71.63
50484;BME280;36409;52.168;20.878;2022-11-20T03:53:52;100305.36;;;-5.70;71.38
50484;BME280;36409;52.168;20.878;2022-11-20T03:56:25;100308.56;;;-5.75;71.86
50484;BME280;36409;52.168;20.878;2022-11-20T03:58:57;100314.28;;;-5.79;71.87
50484;BME280;36409;52.168;20.878;2022-11-20T04:01:29;100310.72;;;-5.82;71.54
50484;BME280;36409;52.168;20.878;2022-11-20T04:03:59;100305.40;;;-5.87;71.63
50484;BME280;36409;52.168;20.878;2022-11-20T04:06:33;100309.36;;;-5.92;71.75
50484;BME280;36409;52.168;20.878;2022-11-20T04:09:02;100308.41;;;-5.94;71.64
50484;BME280;36409;52.168;20.878;2022-11-20T04:11:32;100304.80;;;-5.99;71.86
50484;BME280;36409;52.168;20.878;2022-11-20T04:14:03;100302.88;;;-6.03;71.85
50484;BME280;36409;52.168;20.878;2022-11-20T04:16:35;100309.48;;;-6.07;71.68
50484;BME280;36409;52.168;20.878;2022-11-20T04:19:09;100310.99;;;-6.11;71.76
50484;BME280;36409;52.168;20.878;2022-11-20T04:21:38;100312.51;;;-6.14;71.58
50484;BME280;36409;52.168;20.878;2022-11-20T04:24:07;100314.09;;;-6.16;71.86
50484;BME280;36409;52.168;20.878;2022-11-20T04:26:39;100319.86;;;-6.19;71.95
50484;BME280;36409;52.168;20.878;2022-11-20T04:29:11;100316.39;;;-6.21;71.61
50484;BME280;36409;52.168;20.878;2022-11-20T04:31:40;100316.22;;;-6.24;72.07
50484;BME280;36409;52.168;20.878;2022-11-20T04:34:12;100316.94;;;-6.27;71.96
50484;BME280;36409;52.168;20.878;2022-11-20T04:36:41;100324.39;;;-6.30;71.84
50484;BME280;36409;52.168;20.878;2022-11-20T04:39:14;100308.19;;;-6.32;72.16
50484;BME280;36409;52.168;20.878;2022-11-20T04:41:43;100311.45;;;-6.34;72.09
50484;BME280;36409;52.168;20.878;2022-11-20T04:44:13;100307.09;;;-6.37;71.76
50484;BME280;36409;52.168;20.878;2022-11-20T04:46:51;100308.56;;;-6.41;72.14
50484;BME280;36409;52.168;20.878;2022-11-20T04:49:35;100303.34;;;-6.44;72.13
50484;BME280;36409;52.168;20.878;2022-11-20T04:52:04;100298.09;;;-6.47;72.22
50484;BME280;36409;52.168;20.878;2022-11-20T04:54:32;100298.81;;;-6.49;72.15
50484;BME280;36409;52.168;20.878;2022-11-20T04:57:04;100301.25;;;-6.51;72.18
50484;BME280;36409;52.168;20.878;2022-11-20T04:59:37;100303.72;;;-6.53;71.62
50484;BME280;36409;52.168;20.878;2022-11-20T05:02:07;100301.11;;;-6.54;71.69
50484;BME280;36409;52.168;20.878;2022-11-20T05:04:36;100302.69;;;-6.56;72.23
50484;BME280;36409;52.168;20.878;2022-11-20T05:07:11;100298.33;;;-6.59;72.34
50484;BME280;36409;52.168;20.878;2022-11-20T05:09:40;100301.66;;;-6.60;72.20
50484;BME280;36409;52.168;20.878;2022-11-20T05:12:10;100306.56;;;-6.63;72.09
50484;BME280;36409;52.168;20.878;2022-11-20T05:14:39;100301.30;;;-6.66;72.09
50484;BME280;36409;52.168;20.878;2022-11-20T05:17:15;100302.02;;;-6.69;72.14
50484;BME280;36409;52.168;20.878;2022-11-20T05:19:46;100294.23;;;-6.72;71.50
50484;BME280;36409;52.168;20.878;2022-11-20T05:22:21;100297.41;;;-6.76;71.79
50484;BME280;36409;52.168;20.878;2022-11-20T05:24:50;100298.02;;;-6.80;71.60
50484;BME280;36409;52.168;20.878;2022-11-20T05:27:19;100296.27;;;-6.81;71.77
50484;BME280;36409;52.168;20.878;2022-11-20T05:29:48;100297.06;;;-6.82;71.76
50484;BME280;36409;52.168;20.878;2022-11-20T05:32:16;100291.91;;;-6.84;71.69
50484;BME280;36409;52.168;20.878;2022-11-20T05:34:45;100283.33;;;-6.86;71.68
50484;BME280;36409;52.168;20.878;2022-11-20T05:37:14;100283.16;;;-6.89;71.65
50484;BME280;36409;52.168;20.878;2022-11-20T05:39:44;100280.55;;;-6.90;72.40
50484;BME280;36409;52.168;20.878;2022-11-20T05:42:14;100277.05;;;-6.92;71.84
50484;BME280;36409;52.168;20.878;2022-11-20T05:44:59;100278.55;;;-6.96;71.72
50484;BME280;36409;52.168;20.878;2022-11-20T05:47:32;100276.80;;;-6.97;72.40
50484;BME280;36409;52.168;20.878;2022-11-20T05:50:02;100281.69;;;-7.00;72.16
50484;BME280;36409;52.168;20.878;2022-11-20T05:52:31;100287.41;;;-7.04;71.80
50484;BME280;36409;52.168;20.878;2022-11-20T05:55:05;100291.52;;;-7.06;71.70
50484;BME280;36409;52.168;20.878;2022-11-20T05:57:35;100280.41;;;-7.08;72.41
50484;BME280;36409;52.168;20.878;2022-11-20T06:00:06;100282.05;;;-7.09;72.07
50484;BME280;36409;52.168;20.878;2022-11-20T06:02:36;100282.05;;;-7.09;72.55
50484;BME280;36409;52.168;20.878;2022-11-20T06:05:06;100273.50;;;-7.11;72.36
50484;BME280;36409;52.168;20.878;2022-11-20T06:07:35;100276.04;;;-7.11;71.86
50484;BME280;36409;52.168;20.878;2022-11-20T06:10:05;100270.08;;;-7.11;72.02
50484;BME280;36409;52.168;20.878;2022-11-20T06:12:34;100265.89;;;-7.11;71.98
50484;BME280;36409;52.168;20.878;2022-11-20T06:15:06;100270.08;;;-7.11;72.26
50484;BME280;36409;52.168;20.878;2022-11-20T06:17:35;100277.80;;;-7.10;71.99
50484;BME280;36409;52.168;20.878;2022-11-20T06:20:08;100272.72;;;-7.10;72.00
50484;BME280;36409;52.168;20.878;2022-11-20T06:22:37;100265.97;;;-7.09;72.04
50484;BME280;36409;52.168;20.878;2022-11-20T06:25:07;100266.03;;;-7.08;72.10
50484;BME280;36409;52.168;20.878;2022-11-20T06:27:36;100268.67;;;-7.06;72.60
50484;BME280;36409;52.168;20.878;2022-11-20T06:30:11;100264.46;;;-7.06;72.42
50484;BME280;36409;52.168;20.878;2022-11-20T06:32:40;100262.71;;;-7.07;72.10
50484;BME280;36409;52.168;20.878;2022-11-20T06:35:11;100258.59;;;-7.05;72.16
50484;BME280;36409;52.168;20.878;2022-11-20T06:37:41;100259.56;;;-7.03;72.58
50484;BME280;36409;52.168;20.878;2022-11-20T06:40:14;100257.03;;;-7.03;72.13
50484;BME280;36409;52.168;20.878;2022-11-20T06:42:42;100257.09;;;-7.01;72.65
50484;BME280;36409;52.168;20.878;2022-11-20T06:45:12;100269.00;;;-7.00;72.66
50484;BME280;36409;52.168;20.878;2022-11-20T06:47:41;100268.28;;;-6.98;72.68
50484;BME280;36409;52.168;20.878;2022-11-20T06:50:11;100263.31;;;-6.96;72.69
50484;BME280;36409;52.168;20.878;2022-11-20T06:52:41;100260.95;;;-6.93;72.40
50484;BME280;36409;52.168;20.878;2022-11-20T06:55:11;100269.50;;;-6.91;72.13
50484;BME280;36409;52.168;20.878;2022-11-20T06:57:42;100266.28;;;-6.88;72.49
50484;BME280;36409;52.168;20.878;2022-11-20T07:00:15;100263.87;;;-6.85;72.83
50484;BME280;36409;52.168;20.878;2022-11-20T07:02:43;100253.73;;;-6.85;72.17
50484;BME280;36409;52.168;20.878;2022-11-20T07:05:13;100252.15;;;-6.83;72.65
50484;BME280;36409;52.168;20.878;2022-11-20T07:07:44;100251.43;;;-6.80;72.77
50484;BME280;36409;52.168;20.878;2022-11-20T07:10:14;100242.34;;;-6.77;72.66
50484;BME280;36409;52.168;20.878;2022-11-20T07:12:49;100243.38;;;-6.73;72.83
50484;BME280;36409;52.168;20.878;2022-11-20T07:15:20;100242.72;;;-6.69;72.26
50484;BME280;36409;52.168;20.878;2022-11-20T07:17:54;100245.54;;;-6.64;72.77
50484;BME280;36409;52.168;20.878;2022-11-20T07:20:26;100244.03;;;-6.61;72.36
50484;BME280;36409;52.168;20.878;2022-11-20T07:22:56;100240.84;;;-6.57;72.63
50484;BME280;36409;52.168;20.878;2022-11-20T07:25:29;100241.18;;;-6.50;73.12
50484;BME280;36409;52.168;20.878;2022-11-20T07:27:59;100236.41;;;-6.44;73.00
50484;BME280;36409;52.168;20.878;2022-11-20T07:30:30;100246.02;;;-6.39;72.88
50484;BME280;36409;52.168;20.878;2022-11-20T07:32:59;100251.43;;;-6.32;73.21
50484;BME280;36409;52.168;20.878;2022-11-20T07:35:28;100252.52;;;-6.27;73.11
50484;BME280;36409;52.168;20.878;2022-11-20T07:38:01;100250.39;;;-6.19;72.79
50484;BME280;36409;52.168;20.878;2022-11-20T07:40:29;100249.83;;;-6.14;72.91
50484;BME280;36409;52.168;20.878;2022-11-20T07:42:58;100242.59;;;-6.06;72.71
50484;BME280;36409;52.168;20.878;2022-11-20T07:45:27;100247.16;;;-5.99;72.76
50484;BME280;36409;52.168;20.878;2022-11-20T07:47:56;100244.14;;;-5.92;73.04
50484;BME280;36409;52.168;20.878;2022-11-20T07:50:26;100241.96;;;-5.84;72.82
50484;BME280;36409;52.168;20.878;2022-11-20T07:53:02;100241.48;;;-5.77;72.85
50484;BME280;36409;52.168;20.878;2022-11-20T07:55:32;100239.23;;;-5.70;73.01
50484;BME280;36409;52.168;20.878;2022-11-20T07:58:01;100230.30;;;-5.62;73.17
50484;BME280;36409;52.168;20.878;2022-11-20T08:00:30;100231.47;;;-5.55;73.11
50484;BME280;36409;52.168;20.878;2022-11-20T08:02:59;100231.79;;;-5.49;73.02
50484;BME280;36409;52.168;20.878;2022-11-20T08:05:28;100233.76;;;-5.44;73.43
50484;BME280;36409;52.168;20.878;2022-11-20T08:07:58;100232.29;;;-5.38;73.13
50484;BME280;36409;52.168;20.878;2022-11-20T08:10:27;100228.47;;;-5.30;73.11
50484;BME280;36409;52.168;20.878;2022-11-20T08:12:56;100225.39;;;-5.23;72.79
50484;BME280;36409;52.168;20.878;2022-11-20T08:15:48;100223.06;;;-5.18;73.02
50484;BME280;36409;52.168;20.878;2022-11-20T08:18:18;100225.42;;;-4.85;73.06
50484;BME280;36409;52.168;20.878;2022-11-20T08:21:05;100214.09;;;-4.35;72.65
50484;BME280;36409;52.168;20.878;2022-11-20T08:23:38;100215.23;;;-4.28;72.88
50484;BME280;36409;52.168;20.878;2022-11-20T08:26:10;100216.09;;;-4.27;72.93
50484;BME280;36409;52.168;20.878;2022-11-20T08:28:38;100220.58;;;-4.22;72.89
50484;BME280;36409;52.168;20.878;2022-11-20T08:31:07;100221.11;;;-4.09;73.19
50484;BME280;36409;52.168;20.878;2022-11-20T08:33:38;100212.38;;;-3.95;72.90
50484;BME280;36409;52.168;20.878;2022-11-20T08:36:07;100216.25;;;-3.83;72.68
50484;BME280;36409;52.168;20.878;2022-11-20T08:38:36;100223.34;;;-3.76;72.95
50484;BME280;36409;52.168;20.878;2022-11-20T08:41:06;100214.31;;;-3.68;72.89
50484;BME280;36409;52.168;20.878;2022-11-20T08:44:07;100212.08;;;-3.60;72.80
50484;BME280;36409;52.168;20.878;2022-11-20T08:46:51;100199.37;;;-3.59;72.86
50484;BME280;36409;52.168;20.878;2022-11-20T08:49:20;100187.00;;;-3.49;72.56
50484;BME280;36409;52.168;20.878;2022-11-20T08:51:51;100177.24;;;-3.37;72.63
50484;BME280;36409;52.168;20.878;2022-11-20T08:54:23;100174.77;;;-3.35;73.00
50484;BME280;36409;52.168;20.878;2022-11-20T08:56:52;100176.74;;;-3.28;72.82
50484;BME280;36409;52.168;20.878;2022-11-20T08:59:20;100182.28;;;-3.17;72.73
50484;BME280;36409;52.168;20.878;2022-11-20T09:02:11;100178.08;;;-3.15;72.78
50484;BME280;36409;52.168;20.878;2022-11-20T09:04:42;100179.94;;;-3.11;72.84
50484;BME280;36409;52.168;20.878;2022-11-20T09:07:11;100169.90;;;-3.06;72.62
50484;BME280;36409;52.168;20.878;2022-11-20T09:09:43;100169.98;;;-3.05;72.69
50484;BME280;36409;52.168;20.878;2022-11-20T09:12:11;100163.22;;;-3.03;72.54
50484;BME280;36409;52.168;20.878;2022-11-20T09:14:40;100163.39;;;-2.98;72.79
50484;BME280;36409;52.168;20.878;2022-11-20T09:17:10;100171.25;;;-2.93;72.93
50484;BME280;36409;52.168;20.878;2022-11-20T09:19:41;100168.91;;;-2.87;72.88
50484;BME280;36409;52.168;20.878;2022-11-20T09:22:12;100164.09;;;-2.80;72.91
50484;BME280;36409;52.168;20.878;2022-11-20T09:24:48;100167.78;;;-2.71;72.54
50484;BME280;36409;52.168;20.878;2022-11-20T09:27:17;100165.47;;;-2.65;72.63
50484;BME280;36409;52.168;20.878;2022-11-20T09:29:48;100163.23;;;-2.56;72.48
50484;BME280;36409;52.168;20.878;2022-11-20T09:32:21;100160.11;;;-2.47;72.36
50484;BME280;36409;52.168;20.878;2022-11-20T09:34:50;100164.73;;;-2.12;72.99
50484;BME280;36409;52.168;20.878;2022-11-20T09:37:18;100158.60;;;-0.49;71.24
50484;BME280;36409;52.168;20.878;2022-11-20T09:39:47;100142.74;;;1.56;68.18
50484;BME280;36409;52.168;20.878;2022-11-20T09:42:33;100138.16;;;3.01;67.12
50484;BME280;36409;52.168;20.878;2022-11-20T09:45:22;100145.50;;;4.30;66.61
50484;BME280;36409;52.168;20.878;2022-11-20T09:48:03;100142.63;;;5.22;65.29
50484;BME280;36409;52.168;20.878;2022-11-20T09:50:42;100137.67;;;6.00;64.45
50484;BME280;36409;52.168;20.878;2022-11-20T09:53:16;100141.09;;;6.61;63.55
50484;BME280;36409;52.168;20.878;2022-11-20T09:55:49;100129.73;;;7.11;63.56
50484;BME280;36409;52.168;20.878;2022-11-20T09:58:27;100123.45;;;7.54;63.22
50484;BME280;36409;52.168;20.878;2022-11-20T10:01:03;100125.98;;;7.68;62.18
50484;BME280;36409;52.168;20.878;2022-11-20T10:03:43;100117.21;;;7.86;62.35
50484;BME280;36409;52.168;20.878;2022-11-20T10:06:18;100127.40;;;8.11;62.05
50484;BME280;36409;52.168;20.878;2022-11-20T10:08:58;100123.74;;;8.34;61.28
50484;BME280;36409;52.168;20.878;2022-11-20T10:11:38;100116.75;;;8.41;60.74
50484;BME280;36409;52.168;20.878;2022-11-20T10:14:23;100111.42;;;8.59;60.74
50484;BME280;36409;52.168;20.878;2022-11-20T10:17:03;100119.92;;;8.74;60.88
50484;BME280;36409;52.168;20.878;2022-11-20T10:19:51;100111.80;;;9.03;60.66
50484;BME280;36409;52.168;20.878;2022-11-20T10:22:39;100114.40;;;9.03;60.49
50484;BME280;36409;52.168;20.878;2022-11-20T10:25:16;100110.02;;;9.07;60.34
50484;BME280;36409;52.168;20.878;2022-11-20T10:27:56;100102.20;;;9.08;60.35
50484;BME280;36409;52.168;20.878;2022-11-20T10:30:29;100100.45;;;9.10;59.27
50484;BME280;36409;52.168;20.878;2022-11-20T10:33:03;100093.52;;;9.09;59.88
50484;BME280;36409;52.168;20.878;2022-11-20T10:35:35;100093.66;;;8.97;58.90
50484;BME280;36409;52.168;20.878;2022-11-20T10:38:14;100092.98;;;8.79;59.15
50484;BME280;36409;52.168;20.878;2022-11-20T10:40:46;100088.91;;;8.55;59.14
50484;BME280;36409;52.168;20.878;2022-11-20T10:43:29;100093.48;;;8.27;59.24
50484;BME280;36409;52.168;20.878;2022-11-20T10:46:03;100095.51;;;7.91;59.42
50484;BME280;36409;52.168;20.878;2022-11-20T10:48:34;100095.72;;;7.60;59.93
50484;BME280;36409;52.168;20.878;2022-11-20T10:51:15;100098.69;;;6.76;60.47
50484;BME280;36409;52.168;20.878;2022-11-20T10:54:04;100096.19;;;6.15;62.48
50484;BME280;36409;52.168;20.878;2022-11-20T10:56:41;100092.69;;;5.68;62.75
50484;BME280;36409;52.168;20.878;2022-11-20T10:59:41;100098.58;;;5.12;62.86
50484;BME280;36409;52.168;20.878;2022-11-20T11:02:20;100088.81;;;4.53;63.51
50484;BME280;36409;52.168;20.878;2022-11-20T11:04:51;100094.51;;;4.07;64.05
50484;BME280;36409;52.168;20.878;2022-11-20T11:07:23;100090.82;;;3.77;63.83
50484;BME280;36409;52.168;20.878;2022-11-20T11:09:55;100096.53;;;3.45;63.70
50484;BME280;36409;52.168;20.878;2022-11-20T11:12:25;100096.15;;;3.09;64.47
50484;BME280;36409;52.168;20.878;2022-11-20T11:14:57;100094.06;;;2.82;64.10
50484;BME280;36409;52.168;20.878;2022-11-20T11:17:33;100099.82;;;2.62;64.57
50484;BME280;36409;52.168;20.878;2022-11-20T11:20:16;100096.92;;;2.39;64.55
50484;BME280;36409;52.168;20.878;2022-11-20T11:22:48;100099.19;;;2.19;64.83
50484;BME280;36409;52.168;20.878;2022-11-20T11:25:23;100098.02;;;2.00;64.09
50484;BME280;36409;52.168;20.878;2022-11-20T11:27:56;100091.66;;;1.78;63.76
50484;BME280;36409;52.168;20.878;2022-11-20T11:30:30;100089.64;;;1.61;63.94
50484;BME280;36409;52.168;20.878;2022-11-20T11:33:11;100091.99;;;1.49;64.90
50484;BME280;36409;52.168;20.878;2022-11-20T11:35:46;100090.00;;;1.34;64.84
50484;BME280;36409;52.168;20.878;2022-11-20T11:38:23;100091.52;;;1.24;64.61
50484;BME280;36409;52.168;20.878;2022-11-20T11:40:58;100093.06;;;1.14;64.45
50484;BME280;36409;52.168;20.878;2022-11-20T11:43:31;100085.21;;;1.08;64.68
50484;BME280;36409;52.168;20.878;2022-11-20T11:46:30;100080.77;;;0.99;65.13
50484;BME280;36409;52.168;20.878;2022-11-20T11:49:14;100073.81;;;0.94;65.20
50484;BME280;36409;52.168;20.878;2022-11-20T11:51:56;100079.59;;;0.83;64.46
50484;BME280;36409;52.168;20.878;2022-11-20T11:54:33;100069.31;;;0.83;64.41
50484;BME280;36409;52.168;20.878;2022-11-20T11:57:11;100073.57;;;0.83;64.80
50484;BME280;36409;52.168;20.878;2022-11-20T11:59:54;100070.09;;;0.81;64.78
50484;BME280;36409;52.168;20.878;2022-11-20T12:02:45;100060.61;;;0.76;65.49
50484;BME280;36409;52.168;20.878;2022-11-20T12:05:22;100059.78;;;0.78;65.29
50484;BME280;36409;52.168;20.878;2022-11-20T12:07:54;100053.81;;;0.79;65.14
50484;BME280;36409;52.168;20.878;2022-11-20T12:10:37;100059.04;;;0.83;65.61
50484;BME280;36409;52.168;20.878;2022-11-20T12:13:20;100057.25;;;0.81;64.75
50484;BME280;36409;52.168;20.878;2022-11-20T12:15:50;100052.91;;;0.76;65.43
50484;BME280;36409;52.168;20.878;2022-11-20T12:18:22;100046.78;;;0.71;64.83
50484;BME280;36409;52.168;20.878;2022-11-20T12:21:07;100052.76;;;0.70;65.65
50484;BME280;36409;52.168;20.878;2022-11-20T12:23:46;100043.31;;;0.69;65.59
50484;BME280;36409;52.168;20.878;2022-11-20T12:26:31;100041.55;;;0.67;65.08
50484;BME280;36409;52.168;20.878;2022-11-20T12:29:10;100035.48;;;0.63;64.79
50484;BME280;36409;52.168;20.878;2022-11-20T12:32:01;100036.30;;;0.60;65.18
50484;BME280;36409;52.168;20.878;2022-11-20T12:34:56;100033.59;;;0.54;65.50
50484;BME280;36409;52.168;20.878;2022-11-20T12:37:51;100029.23;;;0.50;65.68
50484;BME280;36409;52.168;20.878;2022-11-20T12:40:32;100023.14;;;0.46;65.02
50484;BME280;36409;52.168;20.878;2022-11-20T12:43:11;100023.98;;;0.45;65.69
50484;BME280;36409;52.168;20.878;2022-11-20T12:46:20;100025.67;;;0.43;65.69
50484;BME280;36409;52.168;20.878;2022-11-20T12:52:05;100016.77;;;0.27;64.84
50484;BME280;36409;52.168;20.878;2022-11-20T12:57:46;100019.89;;;0.14;65.31
50484;BME280;36409;52.168;20.878;2022-11-20T13:00:21;100012.94;;;0.10;65.74
50484;BME280;36409;52.168;20.878;2022-11-20T13:03:20;100000.86;;;0.06;64.79
50484;BME280;36409;52.168;20.878;2022-11-20T13:06:01;99998.97;;;-0.03;65.06
50484;BME280;36409;52.168;20.878;2022-11-20T13:08:35;99998.06;;;-0.05;65.71
50484;BME280;36409;52.168;20.878;2022-11-20T13:11:12;99994.50;;;-0.10;65.19
50484;BME280;36409;52.168;20.878;2022-11-20T13:13:54;99991.81;;;-0.17;65.32
50484;BME280;36409;52.168;20.878;2022-11-20T13:16:29;99989.99;;;-0.21;65.66
50484;BME280;36409;52.168;20.878;2022-11-20T13:19:10;99992.61;;;-0.19;65.95
50484;BME280;36409;52.168;20.878;2022-11-20T13:21:49;99987.48;;;-0.19;65.61